Time;durP1;ratioP1;P1;durP2;ratioP2;P2;SDS_P1;SDS_P2;PMS_P1;PMS_P2;Temp;Humidity;BMP_temperature;BMP_pressure;BME280_temperature;BME280_humidity;BME280_pressure;Samples;Min_cycle;Max_cycle;Signal;HPM_P1;HPM_P2
2022/12/04 00:02:40;;;;;;;124.40;78.28;;;;;;;4.00;98.94;100729.14;2857710;82;21775;-87
2022/12/04 00:06:42;;;;;;;132.95;80.32;;;;;;;3.98;99.48;100738.41;2858809;81;21545;-86
2022/12/04 00:10:43;;;;;;;133.15;84.35;;;;;;;3.95;99.72;100739.05;2850433;82;21042;-87
2022/12/04 00:14:44;;;;;;;143.72;84.65;;;;;;;3.93;99.64;100738.23;2858293;82;21019;-87
2022/12/04 00:18:46;;;;;;;146.15;81.30;;;;;;;3.97;99.52;100729.29;2871531;82;21082;-86
2022/12/04 00:22:47;;;;;;;131.12;81.08;;;;;;;3.97;99.62;100720.91;2848325;82;21022;-86
2022/12/04 00:26:49;;;;;;;128.87;78.72;;;;;;;3.97;99.68;100726.66;2848621;82;21527;-86
2022/12/04 00:30:50;;;;;;;132.65;77.27;;;;;;;3.95;99.36;100727.20;2872438;82;21005;-87
2022/12/04 00:34:52;;;;;;;133.10;77.47;;;;;;;3.98;99.54;100717.84;2853895;82;21491;-86
2022/12/04 00:38:54;;;;;;;147.95;81.25;;;;;;;4.00;99.52;100723.88;2847756;82;21039;-87
2022/12/04 00:42:55;;;;;;;132.90;79.42;;;;;;;3.92;99.34;100740.48;2865820;82;21018;-86
2022/12/04 00:46:56;;;;;;;126.60;74.32;;;;;;;3.88;99.45;100736.28;2844430;82;21539;-86
2022/12/04 00:51:06;;;;;;;127.85;75.30;;;;;;;3.88;99.83;100736.28;2861370;82;21082;-87
2022/12/04 00:55:08;;;;;;;138.32;82.62;;;;;;;3.85;100.00;100730.72;2829536;82;21536;-86
2022/12/04 00:59:09;;;;;;;121.80;76.70;;;;;;;3.90;100.00;100733.11;2828992;84;21073;-86
2022/12/04 01:03:11;;;;;;;126.18;78.67;;;;;;;3.87;100.00;100727.55;2830831;82;20979;-86
2022/12/04 01:07:12;;;;;;;131.95;84.87;;;;;;;3.88;100.00;100720.49;2830947;84;21027;-86
2022/12/04 01:11:13;;;;;;;143.02;78.87;;;;;;;3.97;99.91;100730.12;2832619;82;21180;-86
2022/12/04 01:15:15;;;;;;;149.00;84.58;;;;;;;3.95;99.72;100714.87;2836491;82;21118;-86
2022/12/04 01:19:16;;;;;;;126.02;78.60;;;;;;;3.94;99.60;100716.28;2829532;83;21026;-86
2022/12/04 01:23:18;;;;;;;122.42;77.00;;;;;;;3.92;99.80;100715.47;2797826;83;21095;-86
2022/12/04 01:27:20;;;;;;;134.82;71.53;;;;;;;3.83;100.00;100718.94;2826936;84;20987;-86
2022/12/04 01:31:22;;;;;;;136.88;82.72;;;;;;;3.77;100.00;100717.05;2837581;82;21003;-85
2022/12/04 01:35:23;;;;;;;129.23;80.87;;;;;;;3.91;99.77;100710.69;2869611;82;21082;-85
2022/12/04 01:39:24;;;;;;;155.18;81.90;;;;;;;3.97;99.08;100703.80;2839304;82;21003;-86
2022/12/04 01:43:29;;;;;;;138.88;80.45;;;;;;;4.03;98.62;100697.40;2859630;82;21566;-86
2022/12/04 01:47:30;;;;;;;133.10;77.62;;;;;;;4.05;98.64;100696.86;2840684;82;21070;-86
2022/12/04 01:51:41;;;;;;;143.40;82.12;;;;;;;4.08;98.44;100693.23;2844281;82;21039;-86
2022/12/04 01:55:44;;;;;;;136.05;76.20;;;;;;;4.07;98.58;100689.73;2840692;82;21073;-85
2022/12/04 01:59:52;;;;;;;148.17;82.65;;;;;;;4.05;98.49;100690.28;2862652;82;20996;-85
2022/12/04 02:03:54;;;;;;;139.47;85.45;;;;;;;4.05;98.61;100698.17;2873811;82;21062;-85
2022/12/04 02:07:59;;;;;;;135.55;83.37;;;;;;;4.06;98.51;100706.46;2840946;82;21051;-86
2022/12/04 02:12:21;;;;;;;135.43;79.37;;;;;;;4.06;98.45;100694.61;2848386;82;21027;-86
2022/12/04 02:16:43;;;;;;;132.37;79.85;;;;;;;4.04;98.03;100692.52;2859019;82;21011;-85
2022/12/04 02:21:10;;;;;;;128.47;80.75;;;;;;;4.05;98.33;100686.81;2845897;82;21557;-86
2022/12/04 02:25:49;;;;;;;142.35;85.95;;;;;;;3.95;98.83;100683.28;2753299;84;21082;-86
2022/12/04 02:30:02;;;;;;;123.97;75.75;;;;;;;3.95;99.13;100686.40;2844076;82;20988;-87
2022/12/04 02:34:12;;;;;;;134.75;76.30;;;;;;;3.97;99.37;100688.02;2819418;82;21043;-88
2022/12/04 02:38:21;;;;;;;123.78;74.72;;;;;;;3.97;99.84;100683.22;2818002;82;21177;-87
2022/12/04 02:42:39;;;;;;;128.18;76.45;;;;;;;4.02;99.53;100686.48;2796998;84;21059;-87
2022/12/04 02:46:48;;;;;;;117.45;70.40;;;;;;;4.03;99.44;100681.61;2778851;84;21070;-87
2022/12/04 02:50:52;;;;;;;131.03;72.40;;;;;;;4.12;99.01;100686.41;2817103;83;21030;-87
2022/12/04 02:54:59;;;;;;;123.22;73.60;;;;;;;4.06;98.50;100681.45;2777992;84;21066;-87
2022/12/04 02:59:05;;;;;;;118.02;70.72;;;;;;;4.04;98.55;100690.37;2724629;86;21114;-87
2022/12/04 03:03:18;;;;;;;119.33;67.72;;;;;;;4.06;98.49;100674.87;2808873;84;21490;-86
2022/12/04 03:07:31;;;;;;;122.75;72.35;;;;;;;4.06;98.43;100677.50;2756826;84;21007;-87
2022/12/04 03:11:34;;;;;;;108.85;67.97;;;;;;;4.07;98.19;100680.52;2779171;84;21062;-87
2022/12/04 03:15:44;;;;;;;117.00;65.83;;;;;;;4.03;98.35;100669.75;2733286;85;21129;-87
2022/12/04 03:19:56;;;;;;;121.02;74.45;;;;;;;4.06;98.43;100671.40;2791479;84;21095;-87
2022/12/04 03:24:06;;;;;;;102.12;61.63;;;;;;;4.11;98.67;100674.17;2735957;85;21075;-87
2022/12/04 03:28:13;;;;;;;109.55;67.15;;;;;;;4.13;98.48;100674.11;2698745;85;21104;-87
2022/12/04 03:32:31;;;;;;;116.12;68.42;;;;;;;4.09;98.08;100677.34;2744993;85;21555;-87
2022/12/04 03:36:41;;;;;;;120.20;71.85;;;;;;;4.12;98.06;100689.05;2752298;84;21030;-87
2022/12/04 03:40:57;;;;;;;117.33;71.02;;;;;;;4.11;98.23;100674.17;2765699;85;21072;-86
2022/12/04 03:45:22;;;;;;;104.35;65.45;;;;;;;4.19;98.58;100672.97;2811431;84;21007;-87
2022/12/04 03:50:11;;;;;;;106.32;63.78;;;;;;;4.25;98.33;100673.97;2804384;83;21085;-87
2022/12/04 03:54:22;;;;;;;108.78;67.72;;;;;;;4.28;97.82;100668.55;2701546;86;21039;-86
2022/12/04 03:58:31;;;;;;;115.55;68.67;;;;;;;4.33;97.58;100665.70;2693215;86;21594;-87
2022/12/04 04:02:38;;;;;;;107.17;64.85;;;;;;;4.35;97.19;100669.97;2766026;85;21007;-87
2022/12/04 04:06:53;;;;;;;103.70;65.17;;;;;;;4.35;97.29;100655.94;2704068;86;21605;-87
2022/12/04 04:11:08;;;;;;;122.40;68.95;;;;;;;4.27;97.49;100655.00;2775941;84;21607;-86
2022/12/04 04:24:13;;;;;;;117.22;63.58;;;;;;;4.18;98.59;100667.31;2795866;84;21467;-86
2022/12/04 04:28:35;;;;;;;113.00;69.77;;;;;;;4.13;98.74;100661.81;2813203;82;21004;-86
2022/12/04 04:32:54;;;;;;;114.70;65.87;;;;;;;4.08;98.99;100657.70;2830475;82;21019;-87
2022/12/04 04:37:32;;;;;;;106.87;64.00;;;;;;;3.98;99.51;100654.66;2829417;82;21098;-86
2022/12/04 04:41:42;;;;;;;102.10;66.20;;;;;;;3.93;100.00;100660.58;2851012;82;21518;-86
2022/12/04 04:46:09;;;;;;;105.63;62.15;;;;;;;3.82;100.00;100648.81;2837835;82;21591;-86
2022/12/04 04:50:12;;;;;;;111.85;61.73;;;;;;;3.77;100.00;100644.23;2850255;82;21512;-86
2022/12/04 04:54:16;;;;;;;117.55;66.25;;;;;;;3.71;100.00;100653.72;2833849;82;21035;-86
2022/12/04 04:58:20;;;;;;;104.72;66.10;;;;;;;3.67;100.00;100649.53;2827149;83;21003;-86
2022/12/04 05:02:26;;;;;;;109.70;65.10;;;;;;;3.59;100.00;100653.00;2856988;82;21059;-86
2022/12/04 05:06:27;;;;;;;;;;;;;;;3.57;99.80;100655.23;2853821;82;21016;-86
2022/12/04 05:10:29;;;;;;;99.72;63.70;;;;;;;3.52;99.90;100651.11;2793637;82;20117;-86
2022/12/04 05:14:30;;;;;;;98.50;57.60;;;;;;;3.38;100.00;100654.38;2813236;82;21042;-87
2022/12/04 05:18:33;;;;;;;101.53;61.65;;;;;;;3.28;100.00;100654.78;2840020;82;21070;-86
2022/12/04 05:22:36;;;;;;;106.97;64.37;;;;;;;3.17;100.00;100658.38;2843136;82;21067;-86
2022/12/04 05:26:37;;;;;;;113.03;65.05;;;;;;;3.18;100.00;100656.14;2861274;82;21019;-86
2022/12/04 05:30:39;;;;;;;105.65;65.78;;;;;;;3.07;100.00;100653.13;2857174;82;21027;-86
2022/12/04 05:34:41;;;;;;;106.27;66.35;;;;;;;3.07;100.00;100655.76;2832000;82;21613;-86
2022/12/04 05:38:42;;;;;;;100.20;65.65;;;;;;;3.09;100.00;100656.09;2825333;82;20979;-86
2022/12/04 05:42:44;;;;;;;113.92;63.42;;;;;;;3.09;100.00;100653.47;2801671;82;21652;-86
2022/12/04 05:46:45;;;;;;;114.35;67.75;;;;;;;3.04;100.00;100658.53;2820251;83;21033;-86
2022/12/04 05:50:46;;;;;;;112.15;66.00;;;;;;;2.90;100.00;100657.83;2772687;82;21097;-86
2022/12/04 05:54:47;;;;;;;100.87;59.85;;;;;;;2.93;100.00;100658.53;2748338;85;21531;-86
2022/12/04 05:58:48;;;;;;;116.57;62.75;;;;;;;2.84;100.00;100653.69;2817471;83;20987;-86
2022/12/04 06:02:50;;;;;;;122.90;63.87;;;;;;;2.79;100.00;100664.87;2748143;85;21515;-85
2022/12/04 06:06:53;;;;;;;107.00;60.75;;;;;;;2.77;100.00;100662.77;2728513;85;21063;-86
2022/12/04 06:10:54;;;;;;;122.17;65.90;;;;;;;2.71;100.00;100669.97;2794818;83;21101;-86
2022/12/04 06:14:56;;;;;;;120.10;65.20;;;;;;;2.69;100.00;100669.66;2794482;83;21035;-87
2022/12/04 06:19:01;;;;;;;112.68;67.85;;;;;;;2.63;100.00;100670.77;2790265;83;21553;-86
2022/12/04 06:23:02;;;;;;;111.47;68.83;;;;;;;2.52;100.00;100669.05;2785698;83;21014;-86
2022/12/04 06:27:03;;;;;;;110.25;64.20;;;;;;;2.47;100.00;100672.33;2707470;83;21480;-86
2022/12/04 06:31:12;;;;;;;96.47;63.42;;;;;;;2.47;100.00;100670.58;2683060;85;21059;-86
2022/12/04 06:35:13;;;;;;;106.60;65.12;;;;;;;2.49;100.00;100680.55;2707183;87;21074;-86
2022/12/04 06:39:14;;;;;;;111.08;64.45;;;;;;;2.57;100.00;100674.50;2731566;86;21072;-87
2022/12/04 06:43:15;;;;;;;103.83;65.12;;;;;;;2.66;100.00;100676.37;2770929;85;21044;-87
2022/12/04 06:47:17;;;;;;;112.75;65.78;;;;;;;2.61;100.00;100673.06;2666567;88;21724;-87
2022/12/04 06:51:23;;;;;;;108.47;62.67;;;;;;;2.58;100.00;100671.44;2726113;85;21067;-86
2022/12/04 06:55:24;;;;;;;101.72;64.97;;;;;;;2.60;100.00;100674.84;2785081;84;21569;-86
2022/12/04 06:59:26;;;;;;;102.60;67.53;;;;;;;2.60;100.00;100681.41;2763372;85;21285;-86
2022/12/04 07:03:28;;;;;;;112.52;71.07;;;;;;;2.61;100.00;100671.74;2776901;84;21026;-86
2022/12/04 07:07:29;;;;;;;116.65;63.38;;;;;;;2.58;100.00;100666.19;2712607;86;21575;-86
2022/12/04 07:11:31;;;;;;;123.70;65.72;;;;;;;2.61;100.00;100660.80;2770686;84;21059;-86
2022/12/04 07:15:34;;;;;;;112.15;69.35;;;;;;;2.60;100.00;100664.34;2769845;83;21054;-86
2022/12/04 07:19:37;;;;;;;152.00;110.88;;;;;;;2.59;100.00;100663.95;2723799;87;21403;-86
2022/12/04 07:23:38;;;;;;;135.20;91.78;;;;;;;2.64;100.00;100666.36;2773043;85;21014;-86
2022/12/04 07:27:39;;;;;;;144.87;87.75;;;;;;;2.66;100.00;100681.14;2724235;87;21099;-87
2022/12/04 07:31:40;;;;;;;106.78;69.60;;;;;;;2.73;100.00;100686.12;2771074;85;20987;-87
2022/12/04 07:35:42;;;;;;;103.38;69.60;;;;;;;2.76;100.00;100687.34;2693814;87;21118;-87
2022/12/04 07:39:43;;;;;;;116.45;71.92;;;;;;;2.81;100.00;100686.20;2693624;86;21024;-87
2022/12/04 07:43:45;;;;;;;140.65;77.78;;;;;;;2.84;100.00;100677.34;2752043;85;21047;-86
2022/12/04 07:47:46;;;;;;;212.80;116.88;;;;;;;2.86;100.00;100674.18;2798005;83;21616;-86
2022/12/04 07:51:47;;;;;;;179.75;104.50;;;;;;;2.92;100.00;100672.59;2787843;84;20995;-86
2022/12/04 07:55:53;;;;;;;130.78;86.45;;;;;;;2.96;100.00;100676.81;2785876;84;21040;-87
2022/12/04 07:59:54;;;;;;;113.05;69.95;;;;;;;3.04;100.00;100686.96;2788467;85;21054;-86
2022/12/04 08:03:58;;;;;;;104.92;64.45;;;;;;;3.15;100.00;100682.58;2788235;84;21542;-87
2022/12/04 08:07:59;;;;;;;101.85;66.60;;;;;;;3.22;100.00;100675.24;2789942;83;20959;-86
2022/12/04 08:12:00;;;;;;;113.50;68.83;;;;;;;3.29;100.00;100689.36;2790125;83;21045;-86
2022/12/04 08:16:08;;;;;;;110.28;64.58;;;;;;;3.37;100.00;100686.39;2788416;85;21082;-86
2022/12/04 08:20:11;;;;;;;107.17;66.25;;;;;;;3.36;100.00;100686.00;2788711;85;21061;-86
2022/12/04 08:24:12;;;;;;;91.90;60.95;;;;;;;3.32;100.00;100678.31;2787069;83;21597;-86
2022/12/04 08:28:13;;;;;;;107.67;64.70;;;;;;;3.32;100.00;100686.20;2790116;83;21058;-86
2022/12/04 08:32:14;;;;;;;101.65;64.07;;;;;;;3.37;100.00;100686.39;2795592;83;21661;-85
2022/12/04 08:36:19;;;;;;;106.05;66.95;;;;;;;3.48;100.00;100694.27;2788057;84;21012;-85
2022/12/04 08:40:20;;;;;;;139.52;87.37;;;;;;;3.59;100.00;100702.98;2788118;83;21009;-88
2022/12/04 08:44:22;;;;;;;120.22;73.83;;;;;;;3.72;100.00;100706.73;2784217;83;21093;-88
2022/12/04 08:48:23;;;;;;;135.72;85.87;;;;;;;3.85;100.00;100705.24;2759542;84;21070;-86
2022/12/04 08:52:24;;;;;;;119.70;75.95;;;;;;;3.86;100.00;100706.95;2788861;83;21485;-86
2022/12/04 08:56:28;;;;;;;128.87;71.22;;;;;;;3.94;100.00;100707.91;2784702;83;21047;-86
2022/12/04 09:00:30;;;;;;;128.72;73.20;;;;;;;4.02;100.00;100719.84;2786276;83;21014;-86
2022/12/04 09:04:33;;;;;;;121.02;70.08;;;;;;;4.05;100.00;100717.92;2756714;84;21066;-86
2022/12/04 09:08:36;;;;;;;117.55;70.80;;;;;;;3.99;100.00;100698.48;2783269;83;21518;-87
2022/12/04 09:12:37;;;;;;;101.30;65.37;;;;;;;3.96;100.00;100700.78;2788540;83;21588;-85
2022/12/04 09:16:38;;;;;;;108.00;67.85;;;;;;;3.99;100.00;100693.22;2788227;83;21038;-86
2022/12/04 09:20:40;;;;;;;112.57;67.92;;;;;;;4.00;100.00;100690.97;2788609;83;21082;-86
2022/12/04 09:24:41;;;;;;;104.63;66.45;;;;;;;3.99;100.00;100681.37;2790101;83;21038;-86
2022/12/04 09:28:42;;;;;;;113.08;69.22;;;;;;;4.08;100.00;100685.34;2788313;83;21077;-84
2022/12/04 09:32:43;;;;;;;180.63;107.95;;;;;;;4.17;100.00;100678.77;2788644;84;21510;-84
2022/12/04 09:36:45;;;;;;;138.35;80.80;;;;;;;4.29;100.00;100674.20;2788455;84;21030;-86
2022/12/04 09:41:14;;;;;;;120.80;70.37;;;;;;;4.39;100.00;100672.83;2789453;82;21015;-86
2022/12/04 09:45:22;;;;;;;113.75;69.62;;;;;;;4.53;100.00;100671.30;2826651;82;21066;-86
2022/12/04 09:49:28;;;;;;;94.28;63.23;;;;;;;4.69;100.00;100672.20;2798931;82;21610;-86
2022/12/04 09:53:41;;;;;;;124.82;73.17;;;;;;;4.79;100.00;100666.47;2826222;82;21106;-86
2022/12/04 09:57:47;;;;;;;110.92;71.70;;;;;;;4.89;98.99;100663.73;2826020;82;21054;-85
2022/12/04 10:01:59;;;;;;;110.90;69.60;;;;;;;4.86;99.13;100654.22;2824225;82;21055;-86
2022/12/04 10:06:06;;;;;;;115.82;64.22;;;;;;;5.00;98.61;100657.44;2790170;83;21078;-87
2022/12/04 10:10:39;;;;;;;106.58;62.03;;;;;;;5.05;98.47;100658.98;2788715;83;21099;-86
2022/12/04 10:14:55;;;;;;;94.90;62.45;;;;;;;5.13;98.52;100653.69;2793407;83;21078;-86
2022/12/04 10:19:19;;;;;;;97.62;61.30;;;;;;;5.21;97.50;100649.33;2794187;83;21169;-86
2022/12/04 10:23:49;;;;;;;94.80;57.48;;;;;;;5.27;96.98;100646.34;2785684;83;21039;-86
2022/12/04 10:27:58;;;;;;;100.25;60.90;;;;;;;5.29;97.24;100642.31;2787315;83;21029;-86
2022/12/04 10:32:17;;;;;;;98.33;58.78;;;;;;;5.33;96.74;100650.93;2787671;82;21054;-87
2022/12/04 10:36:24;;;;;;;102.00;60.33;;;;;;;5.31;97.29;100638.30;2774766;83;21598;-85
2022/12/04 10:40:49;;;;;;;105.05;61.90;;;;;;;5.35;97.11;100622.19;2787375;82;21727;-85
2022/12/04 10:44:52;;;;;;;99.47;60.63;;;;;;;5.35;96.80;100616.08;2795752;83;21089;-86
2022/12/04 10:49:05;;;;;;;105.65;59.90;;;;;;;5.27;97.22;100613.37;2779140;83;21486;-85
2022/12/04 10:53:07;;;;;;;101.65;62.78;;;;;;;5.26;97.79;100615.63;2813296;83;21002;-86
2022/12/04 10:57:12;;;;;;;106.00;65.80;;;;;;;5.26;98.32;100610.35;2816975;82;21558;-87
2022/12/04 11:01:14;;;;;;;99.05;63.70;;;;;;;5.24;98.91;100616.18;2768542;83;21087;-85
2022/12/04 11:05:32;;;;;;;97.97;60.38;;;;;;;5.29;99.58;100614.14;2786183;83;21019;-85
2022/12/04 11:09:34;;;;;;;100.47;58.73;;;;;;;5.38;99.36;100615.42;2783342;83;21007;-86
2022/12/04 11:13:35;;;;;;;104.07;58.92;;;;;;;5.60;99.59;100613.39;2792054;83;21034;-85
2022/12/04 11:17:36;;;;;;;87.82;57.85;;;;;;;5.70;99.53;100608.00;2815598;83;20979;-86
2022/12/04 11:21:38;;;;;;;89.72;56.98;;;;;;;5.83;99.02;100599.74;2795817;83;21132;-86
2022/12/04 11:25:46;;;;;;;90.03;61.63;;;;;;;5.95;98.58;100596.03;2785988;83;21035;-85
2022/12/04 11:29:49;;;;;;;94.58;59.40;;;;;;;6.06;98.27;100588.36;2787288;83;21367;-86
2022/12/04 11:33:57;;;;;;;92.08;61.35;;;;;;;6.24;98.54;100586.90;2792365;83;21030;-86
2022/12/04 11:38:16;;;;;;;81.50;55.80;;;;;;;6.47;98.17;100588.64;2795887;83;21034;-87
2022/12/04 11:42:28;;;;;;;92.62;56.75;;;;;;;6.63;97.48;100587.27;2867506;82;21098;-87
2022/12/04 11:46:32;;;;;;;81.28;52.40;;;;;;;6.71;96.00;100576.61;2872591;82;21019;-85
2022/12/04 11:51:06;;;;;;;88.27;54.48;;;;;;;6.77;95.20;100574.03;2845211;82;21404;-85
2022/12/04 11:55:22;;;;;;;94.32;61.85;;;;;;;6.74;94.66;100575.55;2857127;82;21613;-87
2022/12/04 11:59:59;;;;;;;97.42;57.43;;;;;;;6.80;95.01;100576.98;2846500;82;21521;-87
2022/12/04 12:04:25;;;;;;;90.92;61.85;;;;;;;6.80;95.10;100573.88;2788271;83;21072;-85
2022/12/04 12:09:02;;;;;;;103.85;62.83;;;;;;;6.74;95.26;100582.16;2742336;84;21159;-86
2022/12/04 12:13:35;;;;;;;92.62;60.78;;;;;;;6.73;94.93;100576.98;2749426;85;21044;-85
2022/12/04 12:17:48;;;;;;;87.67;57.23;;;;;;;6.76;94.90;100586.88;2732035;85;21631;-86
2022/12/04 12:22:03;;;;;;;95.30;62.43;;;;;;;6.85;94.41;100590.76;2720147;84;21023;-88
2022/12/04 12:26:14;;;;;;;96.28;60.08;;;;;;;6.90;94.82;100582.55;2737936;86;21775;-89
2022/12/04 12:30:19;;;;;;;77.78;51.92;;;;;;;6.94;93.87;100576.12;2747747;86;21095;-86
2022/12/04 12:34:36;;;;;;;75.67;51.35;;;;;;;6.93;93.61;100581.89;2718745;86;21657;-88
2022/12/04 12:38:57;;;;;;;98.20;56.08;;;;;;;6.93;94.31;100585.86;2754496;85;20987;-86
2022/12/04 12:43:24;;;;;;;79.87;48.90;;;;;;;6.95;94.37;100572.06;2833541;82;21091;-88
2022/12/04 12:47:39;;;;;;;79.35;53.15;;;;;;;6.92;94.34;100560.82;2832292;82;21006;-86
2022/12/04 12:52:21;;;;;;;83.87;50.30;;;;;;;6.90;94.87;100554.78;2834558;82;21046;-86
2022/12/04 12:56:37;;;;;;;74.05;49.75;;;;;;;6.88;94.85;100546.09;2777550;82;21010;-87
2022/12/04 13:01:09;;;;;;;78.52;49.13;;;;;;;6.80;95.62;100555.83;2848198;82;21041;-87
2022/12/04 13:05:14;;;;;;;83.95;50.73;;;;;;;6.74;95.84;100549.60;2823660;84;21474;-87
2022/12/04 13:09:30;;;;;;;70.67;47.87;;;;;;;6.76;96.35;100532.68;2818296;84;21027;-87
2022/12/04 13:13:37;;;;;;;79.80;52.03;;;;;;;6.76;96.54;100522.10;2832221;83;21019;-87
2022/12/04 13:17:39;;;;;;;73.25;47.70;;;;;;;6.66;96.54;100533.72;2823290;81;21026;-88
2022/12/04 13:22:11;;;;;;;80.77;52.10;;;;;;;6.69;96.29;100526.95;2826668;84;21025;-87
2022/12/04 13:26:30;;;;;;;67.45;44.27;;;;;;;6.70;96.20;100524.68;2807356;83;21537;-87
2022/12/04 13:30:43;;;;;;;81.05;47.38;;;;;;;6.77;96.36;100528.26;2837661;82;21015;-87
2022/12/04 13:35:21;;;;;;;60.17;39.90;;;;;;;6.82;96.43;100530.13;2841851;82;21074;-87
2022/12/04 13:39:50;;;;;;;78.80;50.98;;;;;;;6.69;96.83;100540.16;2841553;82;21626;-87
2022/12/04 13:43:52;;;;;;;79.85;51.37;;;;;;;6.61;97.73;100561.41;2855034;82;21371;-87
2022/12/04 13:47:59;;;;;;;74.40;48.00;;;;;;;6.58;97.29;100546.56;2846382;82;21011;-88
2022/12/04 13:52:04;;;;;;;64.90;44.20;;;;;;;6.57;97.21;100551.48;2840408;82;21374;-87
2022/12/04 13:56:09;;;;;;;81.78;48.80;;;;;;;6.62;97.02;100536.18;2840289;82;21019;-88
2022/12/04 14:00:33;;;;;;;70.22;45.90;;;;;;;6.65;96.90;100547.05;2848079;82;21128;-87
2022/12/04 14:04:45;;;;;;;70.30;48.23;;;;;;;6.61;97.01;100542.90;2851941;82;21038;-87
2022/12/04 14:08:47;;;;;;;71.45;48.40;;;;;;;6.51;97.18;100536.00;2817960;82;21019;-87
2022/12/04 14:13:13;;;;;;;70.10;42.73;;;;;;;6.45;97.52;100545.61;2845529;82;21559;-87
2022/12/04 14:17:29;;;;;;;80.72;49.13;;;;;;;6.39;97.70;100547.69;2857987;82;21043;-87
2022/12/04 14:21:43;;;;;;;74.77;51.18;;;;;;;6.35;98.31;100550.59;2843320;82;20976;-88
2022/12/04 14:25:45;;;;;;;69.77;49.65;;;;;;;6.34;98.56;100546.25;2858373;82;21063;-87
2022/12/04 14:29:55;;;;;;;83.90;52.00;;;;;;;6.14;99.40;100549.61;2841342;82;21094;-88
2022/12/04 14:34:28;;;;;;;82.22;53.52;;;;;;;6.12;99.75;100552.81;2859437;82;21042;-87
2022/12/04 14:38:31;;;;;;;68.60;46.05;;;;;;;6.07;99.93;100558.36;2835447;82;21031;-87
2022/12/04 14:42:38;;;;;;;87.57;50.52;;;;;;;5.88;100.00;100553.28;2859670;82;21031;-87
2022/12/04 14:46:46;;;;;;;87.62;55.70;;;;;;;5.94;100.00;100556.05;2859023;82;21561;-87
2022/12/04 14:51:09;;;;;;;87.25;51.83;;;;;;;5.82;100.00;100551.84;2841014;82;21108;-87
2022/12/04 14:55:41;;;;;;;72.22;46.77;;;;;;;5.72;100.00;100562.56;2864575;82;21019;-87
2022/12/04 14:59:50;;;;;;;90.47;51.35;;;;;;;5.52;100.00;100562.36;2857825;82;21023;-87
2022/12/04 15:03:55;;;;;;;98.03;59.00;;;;;;;5.33;100.00;100558.59;2845586;82;21058;-87
2022/12/04 15:08:02;;;;;;;102.95;61.55;;;;;;;5.10;100.00;100556.73;2843128;82;21043;-87
2022/12/04 15:12:33;;;;;;;109.03;58.63;;;;;;;4.96;100.00;100559.67;2838808;82;21031;-87
2022/12/04 15:16:34;;;;;;;106.22;59.77;;;;;;;4.79;100.00;100552.66;2815573;82;21589;-87
2022/12/04 15:20:50;;;;;;;99.42;57.62;;;;;;;4.78;100.00;100558.86;2865279;82;21070;-87
2022/12/04 15:24:53;;;;;;;111.35;66.65;;;;;;;4.64;100.00;100553.02;2839108;82;21050;-87
2022/12/04 15:29:01;;;;;;;109.55;60.03;;;;;;;4.70;100.00;100553.16;2850943;82;21038;-87
2022/12/04 15:33:04;;;;;;;106.27;63.40;;;;;;;4.64;100.00;100557.45;2863495;82;21125;-88
2022/12/04 15:37:13;;;;;;;106.60;65.42;;;;;;;4.73;100.00;100560.06;2842223;82;21019;-88
2022/12/04 15:41:29;;;;;;;103.02;64.55;;;;;;;4.71;100.00;100557.49;2838404;82;21261;-87
2022/12/04 15:45:33;;;;;;;106.53;63.77;;;;;;;4.66;100.00;100558.21;2840787;82;20996;-87
2022/12/04 15:49:34;;;;;;;100.18;58.70;;;;;;;4.70;100.00;100552.67;2863257;82;21108;-87
2022/12/04 15:53:38;;;;;;;93.97;60.38;;;;;;;4.77;100.00;100555.84;2840464;82;21649;-87
2022/12/04 15:57:42;;;;;;;98.62;59.50;;;;;;;4.82;100.00;100555.16;2839490;82;20988;-87
2022/12/04 16:01:44;;;;;;;100.53;55.90;;;;;;;4.82;100.00;100555.60;2852184;82;20976;-87
2022/12/04 16:05:46;;;;;;;87.12;52.80;;;;;;;4.75;100.00;100550.28;2838620;82;20988;-87
2022/12/04 16:09:58;;;;;;;107.43;63.55;;;;;;;4.68;100.00;100549.27;2838173;82;21063;-87
2022/12/04 16:14:16;;;;;;;96.65;58.63;;;;;;;4.70;100.00;100557.95;2826631;82;21059;-87
2022/12/04 16:18:18;;;;;;;106.47;62.25;;;;;;;4.68;100.00;100552.39;2782413;82;32197;-87
2022/12/04 16:22:22;;;;;;;115.70;66.25;;;;;;;4.67;100.00;100555.96;2869949;82;21460;-88
2022/12/04 16:26:23;;;;;;;104.72;65.92;;;;;;;4.68;100.00;100554.55;2837365;82;21072;-87
2022/12/04 16:30:26;;;;;;;105.83;62.67;;;;;;;4.68;100.00;100558.50;2864493;82;21504;-87
2022/12/04 16:34:27;;;;;;;110.17;60.28;;;;;;;4.67;100.00;100558.11;2807189;82;21123;-87
2022/12/04 16:38:29;;;;;;;102.00;60.95;;;;;;;4.69;100.00;100559.36;2815532;83;21110;-87
2022/12/04 16:42:30;;;;;;;104.75;63.20;;;;;;;4.70;100.00;100557.95;2843960;82;21023;-87
2022/12/04 16:46:31;;;;;;;112.30;68.50;;;;;;;4.72;100.00;100563.15;2843506;82;20991;-87
2022/12/04 16:50:33;;;;;;;124.33;69.75;;;;;;;4.67;100.00;100548.89;2843339;82;21033;-87
2022/12/04 16:54:34;;;;;;;116.53;68.78;;;;;;;4.59;100.00;100551.09;2838459;82;21039;-87
2022/12/04 16:58:35;;;;;;;111.37;66.90;;;;;;;4.44;100.00;100563.29;2834280;82;21086;-87
2022/12/04 17:02:37;;;;;;;91.53;54.48;;;;;;;4.38;100.00;100559.63;2807620;83;21665;-87
2022/12/04 17:06:38;;;;;;;80.53;49.83;;;;;;;4.17;100.00;100565.55;2838221;82;21074;-87
2022/12/04 17:10:39;;;;;;;105.22;63.95;;;;;;;3.97;100.00;100560.34;2836944;82;21001;-88
2022/12/04 17:14:40;;;;;;;108.35;71.47;;;;;;;4.06;100.00;100563.46;2851301;82;21376;-87
2022/12/04 17:18:43;;;;;;;103.60;62.20;;;;;;;3.91;100.00;100565.92;2833084;82;21020;-87
2022/12/04 17:22:44;;;;;;;112.25;64.00;;;;;;;3.85;100.00;100563.13;2851671;82;21035;-88
2022/12/04 17:26:45;;;;;;;102.53;58.60;;;;;;;3.80;100.00;100559.88;2833835;82;21059;-87
2022/12/04 17:30:46;;;;;;;105.97;62.10;;;;;;;3.72;100.00;100569.91;2834235;82;21083;-87
2022/12/04 17:34:48;;;;;;;112.32;59.75;;;;;;;3.66;100.00;100569.77;2827865;82;21002;-87
2022/12/04 17:39:00;;;;;;;100.53;59.60;;;;;;;3.64;100.00;100569.44;2858602;82;22262;-88
2022/12/04 17:43:01;;;;;;;99.37;63.08;;;;;;;3.64;100.00;100576.88;2835708;82;21618;-87
2022/12/04 17:47:03;;;;;;;102.12;59.23;;;;;;;3.65;100.00;100572.45;2832152;82;21059;-88
2022/12/04 17:51:09;;;;;;;110.90;66.92;;;;;;;3.64;100.00;100566.80;2854181;82;21099;-87
2022/12/04 17:55:11;;;;;;;95.05;64.50;;;;;;;3.70;100.00;100562.55;2833989;82;21063;-88
2022/12/04 17:59:12;;;;;;;105.30;63.13;;;;;;;3.72;100.00;100560.70;2832469;82;21031;-87
2022/12/04 18:03:13;;;;;;;113.75;65.20;;;;;;;3.69;100.00;100564.80;2838352;82;21092;-88
2022/12/04 18:07:15;;;;;;;110.80;65.62;;;;;;;3.74;100.00;100565.45;2841612;82;20983;-87
2022/12/04 18:11:19;;;;;;;108.83;57.55;;;;;;;3.76;100.00;100565.36;2839589;81;21031;-87
2022/12/04 18:15:20;;;;;;;123.00;67.12;;;;;;;3.80;100.00;100561.64;2864167;82;21023;-87
2022/12/04 18:19:26;;;;;;;119.33;74.03;;;;;;;3.80;100.00;100569.53;2847156;82;21035;-87
2022/12/04 18:23:28;;;;;;;132.05;74.10;;;;;;;3.82;100.00;100558.47;2842771;82;21051;-88
2022/12/04 18:27:30;;;;;;;149.38;76.53;;;;;;;3.84;100.00;100561.90;2836351;82;20996;-88
2022/12/04 18:31:31;;;;;;;127.30;67.67;;;;;;;3.85;100.00;100563.13;2840863;82;21409;-88
2022/12/04 18:35:32;;;;;;;134.25;75.97;;;;;;;3.95;100.00;100552.16;2851179;82;20979;-91
2022/12/04 18:39:34;;;;;;;130.47;74.80;;;;;;;3.99;100.00;100549.75;2823472;83;21062;-86
2022/12/04 18:43:42;;;;;;;148.68;76.85;;;;;;;4.04;100.00;100555.63;2810670;83;21558;-88
2022/12/04 18:47:45;;;;;;;145.22;80.50;;;;;;;4.09;100.00;100549.66;2741176;85;20996;-90
2022/12/04 18:51:47;;;;;;;127.58;71.60;;;;;;;4.03;100.00;100542.08;2732195;85;21021;-88